Terminal Aerodrome Forecast
Issued by NWS Charleston, WV

Home | Current Version | Previous Version | Text Only | Print | Product List | Glossary On
Versions: 1 2 3 4 5 6 7 8 9 10 11 12 13 14 15 16 17 18 19 20 21 22 23 24 25
000
FTUS41 KRLX 071133
TAFBKW
TAF
KBKW 071133Z 0712/0812 20005KT P6SM FEW010
      TEMPO 0712/0713 3SM BR
     FM071300 25007KT P6SM SCT025
     FM071500 25009KT P6SM BKN030
     FM072100 24007KT P6SM VCTS SCT035CB BKN100
     FM080100 21005KT 5SM SHRA BR VCTS BKN035CB BKN080=

USA.gov is the U.S. government's official web portal to all federal, state and local government web resources and services.